Veedum, Wisconsin
Current Conditions -  °F | °C
As of 10:11 AM on Monday 22 Dec 2014 (Local Time) from KMFI Reporting Station
Haze Haze  
Wind Chill: 25°   Ceiling: 600
Heat Index: 34°   Visibility: 2mi
Dew Point: 31°   Wind: 13mph
Humidity: 89%   Direction: 130°SE
Pressure: 29.78"   Gusts: NA
Location:  44.4101°N, 90.2968°W
Report Text: KMFI 221611Z AUTO 13011KT 2SM BR OVC006 01/M01 A2978 RMK AO2 SNE07 CIG 005V009 P0000 T00111006
Loading
Personal Weather Stations






























Interactive Weather Map New forecast layout! Learn more

10-Day Weather Forecast

Advertisements
Track Severe Weather on mobile